Time;durP1;ratioP1;P1;durP2;ratioP2;P2;SDS_P1;SDS_P2;PMS_P1;PMS_P2;Temp;Humidity;BMP_temperature;BMP_pressure;BME280_temperature;BME280_humidity;BME280_pressure;Samples;Min_cycle;Max_cycle;Signal;HPM_P1;HPM_P2
2022/10/24 00:00:41;;;;;;;6.82;4.18;;;19.30;99.90;;;;;;4137112;28;20214;-76
2022/10/24 00:02:44;;;;;;;6.65;4.28;;;19.30;99.90;;;;;;4148287;28;20244;-76
2022/10/24 00:04:47;;;;;;;6.93;4.07;;;19.30;99.90;;;;;;4131143;28;20237;-76
2022/10/24 00:06:49;;;;;;;5.97;4.00;;;19.30;99.90;;;;;;4148327;28;20631;-76
2022/10/24 00:08:52;;;;;;;5.82;3.92;;;19.30;99.90;;;;;;4148855;28;20221;-76
2022/10/24 00:10:54;;;;;;;6.07;4.15;;;19.30;99.90;;;;;;4148615;28;20263;-76
2022/10/24 00:12:56;;;;;;;4.93;3.88;;;19.30;99.90;;;;;;4148039;28;20221;-76
2022/10/24 00:14:59;;;;;;;7.63;4.00;;;19.30;99.90;;;;;;4148326;28;20267;-76
2022/10/24 00:17:01;;;;;;;6.22;4.07;;;19.30;99.90;;;;;;4135762;28;20221;-76
2022/10/24 00:19:05;;;;;;;4.95;4.00;;;19.30;99.90;;;;;;4148742;28;20279;-76
2022/10/24 00:21:08;;;;;;;6.05;3.85;;;19.30;99.90;;;;;;4148396;28;20224;-76
2022/10/24 00:23:12;;;;;;;5.43;3.58;;;19.30;99.90;;;;;;4148168;28;20249;-76
2022/10/24 00:25:14;;;;;;;6.78;4.05;;;19.30;99.90;;;;;;4147854;28;20233;-76
2022/10/24 00:27:17;;;;;;;5.07;3.85;;;19.30;99.90;;;;;;4148214;28;20221;-76
2022/10/24 00:29:19;;;;;;;8.57;4.10;;;19.30;99.90;;;;;;4148321;28;20217;-76
2022/10/24 00:31:21;;;;;;;5.75;4.05;;;19.30;99.90;;;;;;4147793;28;20624;-76
2022/10/24 00:33:24;;;;;;;5.15;3.30;;;19.30;99.90;;;;;;4148053;28;20339;-76
2022/10/24 00:35:28;;;;;;;5.97;4.18;;;19.30;99.90;;;;;;4147930;28;20248;-76
2022/10/24 00:37:30;;;;;;;6.25;4.00;;;19.30;99.90;;;;;;4147782;28;20217;-76
2022/10/24 00:39:33;;;;;;;6.65;4.10;;;19.30;99.90;;;;;;4148063;28;20271;-76
2022/10/24 00:41:37;;;;;;;5.95;3.90;;;19.30;99.90;;;;;;4147604;28;20225;-76
2022/10/24 00:43:39;;;;;;;6.25;3.90;;;19.30;99.90;;;;;;4136939;28;20214;-76
2022/10/24 00:45:47;;;;;;;6.15;3.45;;;19.30;99.90;;;;;;4146365;28;20221;-76
2022/10/24 00:47:49;;;;;;;5.10;3.85;;;19.30;99.90;;;;;;4147832;28;20229;-76
2022/10/24 00:49:59;;;;;;;5.43;3.53;;;19.30;99.90;;;;;;4148248;28;20279;-76
2022/10/24 00:52:06;;;;;;;7.28;4.28;;;19.30;99.90;;;;;;4147612;28;20217;-76
2022/10/24 00:54:12;;;;;;;6.07;3.75;;;19.30;99.90;;;;;;4134754;28;20651;-75
2022/10/24 00:56:16;;;;;;;4.50;3.67;;;19.30;99.90;;;;;;4148089;28;20229;-76
2022/10/24 00:58:21;;;;;;;6.78;4.15;;;19.30;99.90;;;;;;4148308;28;20272;-76
2022/10/24 01:00:26;;;;;;;6.72;3.85;;;19.30;99.90;;;;;;4147620;28;20619;-76
2022/10/24 01:02:28;;;;;;;5.68;3.88;;;19.30;99.90;;;;;;4148422;28;20241;-76
2022/10/24 01:04:30;;;;;;;5.40;3.78;;;19.20;99.90;;;;;;4148887;28;20225;-76
2022/10/24 01:06:46;;;;;;;5.03;4.10;;;19.30;99.90;;;;;;4148520;28;20259;-76
2022/10/24 01:09:01;;;;;;;4.85;3.30;;;19.20;99.90;;;;;;4148296;28;20636;-76
2022/10/24 01:11:12;;;;;;;5.05;3.75;;;19.20;99.90;;;;;;4147684;28;20221;-76
2022/10/24 01:13:24;;;;;;;5.88;3.50;;;19.30;99.90;;;;;;4148033;28;20596;-75
2022/10/24 01:15:36;;;;;;;5.57;3.50;;;19.20;99.90;;;;;;4148141;28;20233;-76
2022/10/24 01:17:43;;;;;;;5.40;3.70;;;19.20;99.90;;;;;;4148213;28;20225;-76
2022/10/24 01:20:17;;;;;;;5.88;3.97;;;19.20;99.90;;;;;;4148153;28;20302;-76
2022/10/24 01:22:24;;;;;;;5.78;3.65;;;19.30;99.90;;;;;;4124920;28;20287;-76
2022/10/24 01:24:39;;;;;;;5.53;3.80;;;19.30;99.90;;;;;;4147914;28;20224;-76
2022/10/24 01:27:25;;;;;;;6.28;4.03;;;19.20;99.90;;;;;;4147631;28;20724;-76
2022/10/24 01:29:49;;;;;;;6.15;3.80;;;19.20;99.90;;;;;;4081797;29;20731;-76
2022/10/24 01:31:54;;;;;;;5.15;3.53;;;19.20;99.90;;;;;;4134580;28;20229;-76
2022/10/24 01:34:03;;;;;;;3.75;3.00;;;19.20;99.90;;;;;;4147783;28;20632;-76
2022/10/24 01:36:09;;;;;;;6.18;3.60;;;19.30;99.90;;;;;;4147212;28;20236;-76
2022/10/24 01:38:20;;;;;;;6.68;4.05;;;19.20;99.90;;;;;;4147138;28;20670;-76
2022/10/24 01:40:28;;;;;;;6.78;4.03;;;19.20;99.90;;;;;;4147320;28;20213;-76
2022/10/24 01:42:33;;;;;;;5.82;3.60;;;19.20;99.90;;;;;;4147562;28;20244;-76
2022/10/24 01:44:40;;;;;;;4.18;3.25;;;19.20;99.90;;;;;;4147298;28;20286;-76
2022/10/24 01:46:50;;;;;;;5.63;3.83;;;19.20;99.90;;;;;;4147290;28;20228;-76
2022/10/24 01:48:58;;;;;;;5.95;3.65;;;19.20;99.90;;;;;;4141805;28;20217;-76
2022/10/24 01:51:02;;;;;;;6.00;3.85;;;19.20;99.90;;;;;;4147059;28;20224;-76
2022/10/24 01:53:05;;;;;;;5.93;3.17;;;19.20;99.90;;;;;;4139763;28;20350;-76
2022/10/24 01:55:08;;;;;;;6.03;3.85;;;19.20;99.90;;;;;;4147188;28;20221;-76
2022/10/24 01:57:10;;;;;;;5.85;3.58;;;19.20;99.90;;;;;;4147308;28;20217;-76
2022/10/24 01:59:41;;;;;;;6.38;3.60;;;19.20;99.90;;;;;;4144305;28;20259;-76
2022/10/24 02:01:45;;;;;;;5.35;3.67;;;19.20;99.90;;;;;;4146703;28;20645;-77
2022/10/24 02:03:50;;;;;;;6.00;3.10;;;19.20;99.90;;;;;;4146790;28;20244;-76
2022/10/24 02:05:57;;;;;;;6.75;3.60;;;19.20;99.90;;;;;;4146780;28;20571;-76
2022/10/24 02:08:04;;;;;;;5.30;3.53;;;19.20;99.90;;;;;;4146617;28;20278;-77
2022/10/24 02:10:10;;;;;;;4.68;3.25;;;19.20;99.90;;;;;;4147144;28;20220;-77
2022/10/24 02:12:16;;;;;;;5.88;3.05;;;19.20;99.90;;;;;;4146725;28;20720;-77
2022/10/24 02:14:24;;;;;;;5.55;3.40;;;19.20;99.90;;;;;;4146596;28;20217;-77
2022/10/24 02:16:26;;;;;;;6.43;3.53;;;19.20;99.90;;;;;;4147325;28;20339;-77
2022/10/24 02:18:32;;;;;;;5.38;3.33;;;19.20;99.90;;;;;;4147576;28;20279;-77
2022/10/24 02:20:36;;;;;;;6.05;3.40;;;19.20;99.90;;;;;;4147096;28;20721;-75
2022/10/24 02:22:46;;;;;;;6.35;3.28;;;19.20;99.90;;;;;;4133220;28;20256;-76
2022/10/24 02:24:53;;;;;;;6.93;3.53;;;19.20;99.90;;;;;;4134821;28;20279;-76
2022/10/24 02:27:01;;;;;;;4.95;3.22;;;19.20;99.90;;;;;;4147306;28;20225;-76
2022/10/24 02:29:07;;;;;;;4.45;2.95;;;19.20;99.90;;;;;;4147162;28;20250;-77
2022/10/24 02:31:15;;;;;;;5.38;2.90;;;19.20;99.90;;;;;;4146905;28;20229;-77
2022/10/24 02:33:18;;;;;;;6.72;3.10;;;19.20;99.90;;;;;;4146889;28;20727;-77
2022/10/24 02:35:28;;;;;;;5.93;3.30;;;19.20;99.90;;;;;;4147326;28;20727;-77
2022/10/24 02:37:33;;;;;;;4.30;3.13;;;19.20;99.90;;;;;;4146459;28;20635;-77
2022/10/24 02:39:37;;;;;;;4.10;3.28;;;19.20;99.90;;;;;;4146839;28;20267;-77
2022/10/24 02:41:42;;;;;;;5.30;3.50;;;19.20;99.90;;;;;;4146576;28;20229;-77
2022/10/24 02:43:46;;;;;;;4.80;3.00;;;19.20;99.90;;;;;;4146250;28;20276;-77
2022/10/24 02:45:50;;;;;;;4.65;3.17;;;19.20;99.90;;;;;;4146559;28;20233;-77
2022/10/24 02:47:56;;;;;;;4.20;3.10;;;19.10;99.90;;;;;;4147042;28;20263;-76
2022/10/24 02:49:58;;;;;;;5.25;3.10;;;19.20;99.90;;;;;;4146321;28;20216;-76
2022/10/24 02:52:03;;;;;;;5.25;3.05;;;19.20;99.90;;;;;;4146518;28;20634;-77
2022/10/24 02:54:05;;;;;;;5.28;3.47;;;19.10;99.90;;;;;;4146464;28;20263;-76
2022/10/24 02:56:08;;;;;;;5.82;3.35;;;19.20;99.90;;;;;;4146476;28;20279;-77
2022/10/24 02:58:10;;;;;;;4.30;2.97;;;19.20;99.90;;;;;;4146820;28;20724;-75
2022/10/24 03:00:13;;;;;;;4.10;3.00;;;19.20;99.90;;;;;;4146783;28;20217;-76
2022/10/24 03:02:16;;;;;;;6.45;3.72;;;19.20;99.90;;;;;;4146156;28;20267;-75
2022/10/24 03:04:18;;;;;;;5.70;2.80;;;19.20;99.90;;;;;;4146223;28;20294;-76
2022/10/24 03:06:20;;;;;;;3.42;2.85;;;19.20;99.90;;;;;;4146204;28;20287;-76
2022/10/24 03:08:24;;;;;;;4.38;3.30;;;19.20;99.90;;;;;;4146391;28;20221;-75
2022/10/24 03:10:26;;;;;;;5.70;3.63;;;19.20;99.90;;;;;;4146481;28;20279;-76
2022/10/24 03:12:29;;;;;;;6.10;3.22;;;19.20;99.90;;;;;;4146394;28;20732;-76
2022/10/24 03:14:31;;;;;;;4.22;2.95;;;19.20;99.90;;;;;;4146306;28;20213;-75
2022/10/24 03:16:33;;;;;;;4.90;3.30;;;19.20;99.90;;;;;;4146269;28;20585;-76
2022/10/24 03:18:36;;;;;;;3.47;2.92;;;19.20;99.90;;;;;;4146478;28;20315;-76
2022/10/24 03:20:38;;;;;;;6.13;2.90;;;19.10;99.90;;;;;;4146561;28;20332;-76
2022/10/24 03:22:40;;;;;;;5.45;3.20;;;19.10;99.90;;;;;;4146040;28;20267;-75
2022/10/24 03:24:44;;;;;;;3.90;2.72;;;19.20;99.90;;;;;;4145828;28;20291;-76
2022/10/24 03:26:46;;;;;;;4.63;2.97;;;19.20;99.90;;;;;;4145943;28;20295;-76
2022/10/24 03:28:48;;;;;;;5.25;2.60;;;19.20;99.90;;;;;;4146299;28;20267;-76
2022/10/24 03:30:52;;;;;;;4.28;2.80;;;19.20;99.90;;;;;;4146382;28;20271;-76
2022/10/24 03:32:54;;;;;;;4.57;2.88;;;19.20;99.90;;;;;;4146729;28;20267;-76
2022/10/24 03:34:56;;;;;;;7.57;3.08;;;19.20;99.90;;;;;;4149522;28;20634;-76
2022/10/24 03:36:58;;;;;;;8.10;3.22;;;19.20;99.90;;;;;;4149649;28;20224;-76
2022/10/24 03:39:01;;;;;;;6.32;2.72;;;19.20;99.90;;;;;;4149822;28;20225;-76
2022/10/24 03:41:06;;;;;;;4.05;3.03;;;19.20;99.90;;;;;;4142245;28;20229;-76
2022/10/24 03:43:08;;;;;;;5.22;2.85;;;19.10;99.90;;;;;;4148966;28;20623;-76
2022/10/24 03:45:11;;;;;;;4.75;2.72;;;19.20;99.90;;;;;;4149545;28;20275;-76
2022/10/24 03:47:13;;;;;;;6.32;2.65;;;19.20;99.90;;;;;;4145937;28;20213;-76
2022/10/24 03:49:15;;;;;;;6.00;3.08;;;19.20;99.90;;;;;;4147332;28;20217;-76
2022/10/24 03:51:18;;;;;;;6.45;2.97;;;19.10;99.90;;;;;;4149276;28;20688;-76
2022/10/24 03:53:20;;;;;;;4.40;2.83;;;19.20;99.90;;;;;;4136041;28;20225;-75
2022/10/24 03:55:22;;;;;;;4.03;2.70;;;19.10;99.90;;;;;;4149245;28;20300;-75
2022/10/24 03:57:26;;;;;;;4.30;2.70;;;19.10;99.90;;;;;;4149451;28;20267;-75
2022/10/24 03:59:28;;;;;;;4.40;2.80;;;19.10;99.90;;;;;;4149371;28;20651;-75
2022/10/24 04:01:31;;;;;;;4.88;3.05;;;19.10;99.90;;;;;;4135859;28;20245;-75
2022/10/24 04:03:33;;;;;;;5.07;2.95;;;19.10;99.90;;;;;;4149213;28;20358;-75
2022/10/24 04:05:35;;;;;;;4.93;3.03;;;19.20;99.90;;;;;;4148699;28;20225;-75
2022/10/24 04:07:38;;;;;;;5.80;3.08;;;19.20;99.90;;;;;;4148851;28;20267;-76
2022/10/24 04:09:40;;;;;;;4.43;2.53;;;19.10;99.90;;;;;;4149212;28;20301;-76
2022/10/24 04:11:42;;;;;;;2.92;2.28;;;19.10;99.90;;;;;;4148791;28;20287;-76
2022/10/24 04:13:46;;;;;;;5.13;3.05;;;19.20;99.90;;;;;;4148974;28;20222;-76
2022/10/24 04:15:48;;;;;;;6.22;3.10;;;19.10;99.90;;;;;;4148618;28;20228;-76
2022/10/24 04:17:51;;;;;;;5.22;3.00;;;19.20;99.90;;;;;;4136282;28;20279;-75
2022/10/24 04:19:53;;;;;;;5.28;2.95;;;19.20;99.90;;;;;;4148672;28;20217;-76
2022/10/24 04:21:55;;;;;;;5.53;2.78;;;19.10;99.90;;;;;;4148656;28;20268;-76
2022/10/24 04:23:58;;;;;;;4.88;2.80;;;19.20;99.90;;;;;;4148437;28;20245;-76
2022/10/24 04:26:00;;;;;;;4.03;2.55;;;19.10;99.90;;;;;;4148549;28;20681;-76
2022/10/24 04:28:03;;;;;;;4.68;2.70;;;19.20;99.90;;;;;;4148849;28;20729;-76
2022/10/24 04:30:08;;;;;;;3.83;2.90;;;19.10;99.90;;;;;;4148871;28;20266;-76
2022/10/24 04:32:11;;;;;;;4.10;2.67;;;19.10;99.90;;;;;;4148499;28;20222;-75
2022/10/24 04:34:13;;;;;;;3.53;2.65;;;19.20;99.90;;;;;;4148620;28;20213;-76
2022/10/24 04:36:15;;;;;;;5.00;2.50;;;19.10;99.90;;;;;;4148908;28;20229;-76
2022/10/24 04:38:18;;;;;;;5.70;2.80;;;19.10;99.90;;;;;;4148978;28;20291;-76
2022/10/24 04:40:20;;;;;;;4.75;2.80;;;19.10;99.90;;;;;;4148438;28;20271;-76
2022/10/24 04:42:23;;;;;;;4.68;2.72;;;19.10;99.90;;;;;;4148876;28;20244;-76
2022/10/24 04:44:26;;;;;;;4.75;2.67;;;19.20;99.90;;;;;;4147346;28;20283;-76
2022/10/24 04:46:29;;;;;;;4.13;2.72;;;19.20;99.90;;;;;;4148641;28;20673;-76
2022/10/24 04:48:32;;;;;;;4.50;2.67;;;19.10;99.90;;;;;;4148715;28;20329;-76
2022/10/24 04:50:34;;;;;;;3.50;2.78;;;19.10;99.90;;;;;;4147861;28;20221;-76
2022/10/24 04:52:36;;;;;;;3.83;2.50;;;19.10;99.90;;;;;;4148418;28;20225;-76
2022/10/24 04:54:39;;;;;;;5.07;2.75;;;19.10;99.90;;;;;;4147992;28;20213;-76
2022/10/24 04:56:41;;;;;;;6.50;2.78;;;19.10;99.90;;;;;;4136883;28;20264;-76
2022/10/24 04:58:43;;;;;;;5.82;2.47;;;19.10;99.90;;;;;;4145953;28;20221;-76
2022/10/24 05:00:48;;;;;;;5.03;2.70;;;19.10;99.90;;;;;;4148481;28;20245;-76
2022/10/24 05:02:52;;;;;;;6.05;2.90;;;19.20;99.90;;;;;;4148771;28;20620;-76
2022/10/24 05:04:54;;;;;;;8.07;2.30;;;19.10;99.90;;;;;;4148480;28;20241;-76
2022/10/24 05:06:56;;;;;;;4.40;2.40;;;19.10;99.90;;;;;;4148236;28;20225;-76
2022/10/24 05:08:59;;;;;;;5.55;2.50;;;19.10;99.90;;;;;;4148370;28;20275;-76
2022/10/24 05:11:01;;;;;;;6.30;2.67;;;19.10;99.90;;;;;;4148252;28;20213;-76
2022/10/24 05:13:03;;;;;;;4.68;2.70;;;19.10;99.90;;;;;;4147803;28;20274;-76
2022/10/24 05:15:07;;;;;;;4.50;2.42;;;19.10;99.90;;;;;;4147983;28;20221;-76
2022/10/24 05:17:09;;;;;;;4.32;2.42;;;19.20;99.90;;;;;;4148020;28;20225;-76
2022/10/24 05:19:13;;;;;;;5.00;2.63;;;19.10;99.90;;;;;;4147503;28;20275;-76
2022/10/24 05:21:15;;;;;;;7.10;2.75;;;19.10;99.90;;;;;;4145511;28;20225;-76
2022/10/24 05:23:18;;;;;;;6.13;2.83;;;19.10;99.90;;;;;;4147069;28;20269;-76
2022/10/24 05:25:20;;;;;;;5.70;2.80;;;19.10;99.90;;;;;;4147326;28;20245;-76
2022/10/24 05:27:24;;;;;;;5.47;2.22;;;19.10;99.90;;;;;;4147579;28;20279;-76
2022/10/24 05:29:26;;;;;;;6.55;2.75;;;19.10;99.90;;;;;;4139853;28;20221;-77
2022/10/24 05:31:28;;;;;;;4.50;2.80;;;19.10;99.90;;;;;;4147432;28;20233;-76
2022/10/24 05:33:31;;;;;;;5.05;2.40;;;19.10;99.90;;;;;;4147856;28;20287;-77
2022/10/24 05:35:34;;;;;;;4.55;2.15;;;19.10;99.90;;;;;;4148058;28;20570;-76
2022/10/24 05:37:37;;;;;;;6.47;2.72;;;19.10;99.90;;;;;;4147726;28;20217;-77
2022/10/24 05:39:40;;;;;;;3.65;2.17;;;19.10;99.90;;;;;;4147825;28;20220;-76
2022/10/24 05:41:42;;;;;;;6.90;2.70;;;19.10;99.90;;;;;;4140940;28;20284;-76
2022/10/24 05:43:44;;;;;;;5.72;2.25;;;19.10;99.90;;;;;;4147502;28;20224;-77
2022/10/24 05:45:48;;;;;;;4.20;2.30;;;19.10;99.90;;;;;;4147184;28;20241;-76
2022/10/24 05:47:50;;;;;;;5.72;2.17;;;19.10;99.90;;;;;;4147273;28;20225;-76
2022/10/24 05:49:52;;;;;;;4.78;2.45;;;19.10;99.90;;;;;;4147531;28;20225;-77
2022/10/24 05:51:56;;;;;;;6.05;2.20;;;19.10;99.90;;;;;;4147365;28;20225;-76
2022/10/24 05:53:59;;;;;;;5.28;2.45;;;19.10;99.90;;;;;;4147389;28;20294;-76
2022/10/24 05:56:01;;;;;;;5.88;2.30;;;19.10;99.90;;;;;;4146955;28;20268;-76
2022/10/24 05:58:03;;;;;;;4.38;2.40;;;19.10;99.90;;;;;;4147254;28;20287;-76
2022/10/24 06:00:07;;;;;;;4.05;2.30;;;19.10;99.90;;;;;;4147124;28;20221;-76
2022/10/24 06:02:16;;;;;;;5.50;2.55;;;19.10;99.90;;;;;;4146924;28;20651;-76
2022/10/24 06:04:18;;;;;;;6.20;2.58;;;19.10;99.90;;;;;;4147176;28;20267;-76
2022/10/24 06:06:21;;;;;;;5.00;2.67;;;19.10;99.90;;;;;;4147262;28;20638;-76
2022/10/24 06:08:24;;;;;;;4.18;2.30;;;19.10;99.90;;;;;;4146831;28;20287;-76
2022/10/24 06:10:27;;;;;;;5.85;2.85;;;19.10;99.90;;;;;;4147172;28;20283;-76
2022/10/24 06:12:29;;;;;;;6.93;2.45;;;19.10;99.90;;;;;;4147240;28;20225;-75
2022/10/24 06:14:31;;;;;;;5.47;2.50;;;19.10;99.90;;;;;;4146911;28;20271;-76
2022/10/24 06:16:33;;;;;;;5.60;2.30;;;19.10;99.90;;;;;;4146922;28;20271;-76
2022/10/24 06:18:36;;;;;;;5.32;2.58;;;19.10;99.90;;;;;;4146717;28;20217;-75
2022/10/24 06:20:38;;;;;;;5.57;2.42;;;19.10;99.90;;;;;;4146719;28;20221;-74
2022/10/24 06:22:43;;;;;;;6.22;2.10;;;19.10;99.90;;;;;;4146797;28;20216;-75
2022/10/24 06:24:47;;;;;;;5.57;2.60;;;19.10;99.90;;;;;;4146832;28;20560;-76
2022/10/24 06:26:50;;;;;;;9.77;2.58;;;19.10;99.90;;;;;;4134787;28;20228;-75
2022/10/24 06:28:53;;;;;;;5.57;2.50;;;19.10;99.90;;;;;;4146758;28;20291;-75
2022/10/24 06:30:55;;;;;;;6.30;2.70;;;19.10;99.90;;;;;;4146867;28;20672;-75
2022/10/24 06:32:58;;;;;;;4.97;2.03;;;19.10;99.90;;;;;;4146758;28;20224;-76
2022/10/24 06:35:00;;;;;;;7.10;2.47;;;19.10;99.90;;;;;;4146446;28;20279;-76
2022/10/24 06:37:03;;;;;;;5.75;2.40;;;19.10;99.90;;;;;;4146871;28;20221;-75
2022/10/24 06:39:05;;;;;;;7.28;2.58;;;19.10;99.90;;;;;;4146842;28;20224;-75
2022/10/24 06:41:10;;;;;;;5.68;2.33;;;19.10;99.90;;;;;;4146564;28;20209;-76
2022/10/24 06:43:13;;;;;;;6.75;2.17;;;19.10;99.90;;;;;;4146107;28;20735;-76
2022/10/24 06:45:17;;;;;;;5.38;2.42;;;19.10;99.90;;;;;;4144137;28;20232;-76
2022/10/24 06:47:19;;;;;;;6.57;2.38;;;19.10;99.90;;;;;;4146615;28;20242;-76
2022/10/24 06:49:21;;;;;;;6.10;2.20;;;19.10;99.90;;;;;;4146465;28;20271;-76
2022/10/24 06:51:24;;;;;;;6.72;2.40;;;19.10;99.90;;;;;;4146735;28;20209;-76
2022/10/24 06:53:26;;;;;;;5.95;2.53;;;19.10;99.90;;;;;;4146420;28;20646;-76
2022/10/24 06:55:29;;;;;;;6.05;2.10;;;19.10;99.90;;;;;;4145504;28;20280;-76
2022/10/24 06:57:32;;;;;;;6.07;2.40;;;19.10;99.90;;;;;;4144049;28;20340;-76
2022/10/24 06:59:35;;;;;;;6.72;2.03;;;19.10;99.90;;;;;;4141032;28;20268;-76
2022/10/24 07:01:38;;;;;;;6.85;2.50;;;19.10;99.90;;;;;;4133148;28;20326;-76
2022/10/24 07:03:40;;;;;;;7.18;2.35;;;19.00;99.90;;;;;;4140946;28;20221;-75
2022/10/24 07:05:42;;;;;;;10.38;2.50;;;19.00;99.90;;;;;;4145584;28;20287;-75
2022/10/24 07:07:48;;;;;;;11.15;2.47;;;19.00;99.90;;;;;;4144239;28;20263;-77
2022/10/24 07:09:55;;;;;;;12.90;2.85;;;19.00;99.90;;;;;;4137111;28;20366;-73
2022/10/24 07:11:58;;;;;;;11.10;2.58;;;18.90;99.90;;;;;;4138970;28;20213;-74
2022/10/24 07:14:01;;;;;;;9.18;2.20;;;18.90;99.90;;;;;;4134405;28;20287;-74
2022/10/24 07:16:04;;;;;;;11.88;2.78;;;19.00;99.90;;;;;;4138370;28;20206;-75
2022/10/24 07:18:06;;;;;;;14.27;2.70;;;19.00;99.90;;;;;;4130652;28;20257;-74
2022/10/24 07:20:10;;;;;;;11.77;2.35;;;19.00;99.90;;;;;;4140308;28;20281;-75
2022/10/24 07:22:12;;;;;;;10.90;2.60;;;19.10;99.90;;;;;;4144860;28;20323;-74
2022/10/24 07:24:15;;;;;;;8.85;2.15;;;19.10;99.90;;;;;;4144625;28;20221;-73
2022/10/24 07:26:17;;;;;;;12.05;2.80;;;19.10;99.90;;;;;;4145650;28;20232;-74
2022/10/24 07:28:19;;;;;;;22.88;3.13;;;19.10;99.90;;;;;;4143296;28;20217;-74
2022/10/24 07:30:25;;;;;;;16.83;3.28;;;19.10;99.90;;;;;;4146862;28;20220;-72
2022/10/24 07:32:28;;;;;;;10.75;2.35;;;19.20;99.90;;;;;;4148194;28;20221;-73
2022/10/24 07:34:30;;;;;;;11.57;2.83;;;19.20;99.90;;;;;;4141059;28;20216;-74
2022/10/24 07:36:33;;;;;;;8.57;2.53;;;19.20;99.90;;;;;;4144579;28;20321;-73
2022/10/24 07:38:36;;;;;;;9.48;2.55;;;19.30;99.90;;;;;;4146980;28;20567;-73
2022/10/24 07:40:38;;;;;;;14.40;2.85;;;19.30;99.90;;;;;;4141961;28;20217;-77
2022/10/24 07:42:40;;;;;;;17.10;2.50;;;19.30;99.90;;;;;;4134354;28;20636;-75
2022/10/24 07:44:42;;;;;;;16.85;3.08;;;19.30;99.90;;;;;;4133542;28;20272;-74
2022/10/24 07:46:46;;;;;;;13.70;3.00;;;19.30;99.90;;;;;;4143840;28;20292;-75
2022/10/24 07:48:49;;;;;;;9.93;2.47;;;19.30;99.90;;;;;;4137205;28;20221;-76
2022/10/24 07:50:51;;;;;;;14.43;2.70;;;19.40;99.90;;;;;;4141793;28;20341;-78
2022/10/24 07:52:53;;;;;;;15.65;3.38;;;19.40;99.90;;;;;;4141900;28;20642;-77
2022/10/24 07:54:56;;;;;;;13.30;2.88;;;19.40;99.90;;;;;;4144700;28;20225;-77
2022/10/24 07:56:59;;;;;;;12.13;2.78;;;19.40;99.90;;;;;;4143141;28;20267;-74
2022/10/24 07:59:01;;;;;;;15.70;3.15;;;19.50;99.90;;;;;;4143781;28;20303;-74
2022/10/24 08:01:04;;;;;;;19.23;3.00;;;19.50;99.90;;;;;;4136316;28;20945;-75
2022/10/24 08:03:08;;;;;;;10.82;2.65;;;19.50;99.90;;;;;;4145501;28;21036;-76
2022/10/24 08:05:13;;;;;;;14.13;3.00;;;19.50;99.90;;;;;;4142012;28;20319;-74
2022/10/24 08:07:16;;;;;;;9.32;2.33;;;19.50;99.90;;;;;;4139716;28;20237;-74
2022/10/24 08:09:19;;;;;;;10.77;2.70;;;19.60;99.90;;;;;;4142000;28;20221;-75
2022/10/24 08:11:23;;;;;;;12.07;2.55;;;19.60;99.90;;;;;;4145213;28;20213;-76
2022/10/24 08:13:26;;;;;;;11.00;3.08;;;19.70;99.90;;;;;;4143134;28;20214;-75
2022/10/24 08:15:28;;;;;;;11.90;2.67;;;19.70;99.90;;;;;;4138489;28;20276;-75
2022/10/24 08:17:30;;;;;;;13.70;2.80;;;19.70;99.90;;;;;;4141314;28;20221;-75
2022/10/24 08:19:35;;;;;;;11.18;2.53;;;19.70;99.90;;;;;;4142619;28;20217;-76
2022/10/24 08:21:37;;;;;;;12.82;3.15;;;19.80;99.90;;;;;;4146924;28;20221;-75
2022/10/24 08:23:41;;;;;;;11.98;2.67;;;19.70;99.90;;;;;;4146176;28;20217;-76
2022/10/24 08:25:44;;;;;;;12.35;2.88;;;19.80;99.90;;;;;;4143973;28;20217;-75
2022/10/24 08:27:46;;;;;;;13.60;2.47;;;19.80;99.90;;;;;;4143684;28;20249;-76
2022/10/24 08:29:49;;;;;;;13.15;2.60;;;19.80;99.90;;;;;;4144491;28;20283;-75
2022/10/24 08:31:53;;;;;;;9.43;2.67;;;19.80;99.90;;;;;;4141356;28;20284;-75
2022/10/24 08:33:56;;;;;;;11.23;2.47;;;19.80;99.90;;;;;;4143003;28;20336;-75
2022/10/24 08:36:01;;;;;;;10.55;2.65;;;19.90;99.90;;;;;;4146839;28;20597;-75
2022/10/24 08:38:04;;;;;;;12.63;3.15;;;19.90;99.90;;;;;;4145308;28;20201;-74
2022/10/24 08:40:07;;;;;;;10.32;2.92;;;19.90;99.90;;;;;;4144399;28;20259;-73
2022/10/24 08:42:15;;;;;;;9.77;2.38;;;19.90;99.90;;;;;;4145410;28;20216;-73
2022/10/24 08:44:21;;;;;;;11.88;2.40;;;19.90;99.90;;;;;;4142794;28;20214;-74
2022/10/24 08:46:39;;;;;;;12.60;2.50;;;19.90;99.90;;;;;;4144541;28;20237;-73
2022/10/24 08:48:46;;;;;;;12.85;3.00;;;19.90;99.90;;;;;;4142086;28;20269;-76
2022/10/24 08:50:53;;;;;;;14.90;3.08;;;20.00;99.90;;;;;;4137512;28;20263;-74
2022/10/24 08:53:02;;;;;;;11.18;2.45;;;20.00;99.90;;;;;;4139806;28;21867;-76
2022/10/24 08:55:12;;;;;;;17.55;3.55;;;20.00;99.90;;;;;;4132505;28;20225;-75
2022/10/24 08:57:20;;;;;;;12.95;3.00;;;19.90;99.90;;;;;;4137090;28;20494;-76
2022/10/24 08:59:24;;;;;;;13.52;2.35;;;19.90;99.90;;;;;;4133663;28;20266;-75
2022/10/24 09:01:32;;;;;;;13.02;3.05;;;19.90;99.90;;;;;;4129404;28;20276;-76
2022/10/24 09:03:39;;;;;;;11.80;2.40;;;19.90;99.90;;;;;;4128395;28;20225;-75
2022/10/24 09:05:46;;;;;;;12.77;2.88;;;19.90;99.90;;;;;;4136240;28;20268;-70
2022/10/24 09:07:52;;;;;;;12.68;2.85;;;19.90;99.90;;;;;;4142197;28;20299;-71
2022/10/24 09:10:04;;;;;;;13.20;2.50;;;20.00;99.90;;;;;;4141158;28;20280;-72
2022/10/24 09:12:12;;;;;;;10.73;2.80;;;20.00;99.90;;;;;;4141471;28;20965;-72
2022/10/24 09:14:16;;;;;;;15.65;2.80;;;20.00;99.90;;;;;;4142648;28;20212;-72
2022/10/24 09:16:22;;;;;;;11.82;2.70;;;19.90;99.90;;;;;;4145511;28;20686;-71
2022/10/24 09:18:28;;;;;;;12.43;2.53;;;20.00;99.90;;;;;;4145248;28;21584;-73
2022/10/24 09:20:32;;;;;;;9.52;2.63;;;19.90;99.90;;;;;;4144081;28;20452;-71
2022/10/24 09:22:35;;;;;;;12.40;2.80;;;20.00;99.90;;;;;;4147375;28;20220;-71
2022/10/24 09:24:43;;;;;;;12.40;2.78;;;20.00;99.90;;;;;;4146809;28;20612;-72
2022/10/24 09:26:47;;;;;;;6.10;1.95;;;19.90;99.90;;;;;;4140749;28;20236;-71
2022/10/24 09:28:49;;;;;;;13.63;2.72;;;20.00;99.90;;;;;;4143732;28;20205;-72
2022/10/24 09:30:52;;;;;;;9.18;2.10;;;19.90;99.90;;;;;;4142821;28;20229;-72
2022/10/24 09:32:56;;;;;;;7.28;2.40;;;20.00;99.90;;;;;;4148596;28;20625;-71
2022/10/24 09:35:00;;;;;;;13.73;3.20;;;19.90;99.90;;;;;;4143138;28;20264;-72
2022/10/24 09:37:02;;;;;;;12.85;2.85;;;20.00;99.90;;;;;;4135545;28;20210;-72
2022/10/24 09:39:27;;;;;;;10.55;2.75;;;20.00;99.90;;;;;;4136486;28;20262;-72
2022/10/24 09:41:32;;;;;;;9.23;2.08;;;20.00;99.90;;;;;;4142261;28;20287;-72
2022/10/24 09:43:45;;;;;;;11.20;2.45;;;20.00;99.90;;;;;;4136092;28;20272;-72
2022/10/24 09:45:51;;;;;;;11.13;2.70;;;20.10;99.90;;;;;;4141772;28;20275;-72
2022/10/24 09:47:56;;;;;;;8.73;2.22;;;20.10;99.90;;;;;;4143553;28;20237;-71
2022/10/24 09:49:58;;;;;;;10.88;2.42;;;20.20;99.90;;;;;;4144888;28;20267;-71
2022/10/24 09:52:05;;;;;;;12.82;2.67;;;20.20;99.90;;;;;;4145352;28;20221;-72
2022/10/24 09:54:25;;;;;;;8.18;2.47;;;20.20;99.90;;;;;;4142028;28;20270;-72
2022/10/24 09:56:35;;;;;;;11.30;2.30;;;20.20;99.90;;;;;;4139464;28;20213;-72
2022/10/24 09:58:43;;;;;;;12.85;3.00;;;20.20;99.90;;;;;;4143674;28;20224;-72
2022/10/24 10:00:57;;;;;;;8.52;2.58;;;20.20;99.90;;;;;;4141760;28;20231;-72
2022/10/24 10:03:06;;;;;;;11.00;2.58;;;20.20;99.90;;;;;;4144004;28;20221;-73
2022/10/24 10:05:20;;;;;;;10.18;2.58;;;20.20;99.90;;;;;;4142105;28;20219;-72
2022/10/24 10:07:27;;;;;;;11.07;2.72;;;20.20;99.90;;;;;;4147331;28;20236;-73
2022/10/24 10:09:33;;;;;;;7.65;2.13;;;20.20;99.90;;;;;;4143775;28;20264;-73
2022/10/24 10:11:36;;;;;;;10.30;2.78;;;20.20;99.90;;;;;;4144826;28;20940;-71
2022/10/24 10:13:48;;;;;;;7.82;2.13;;;20.30;99.90;;;;;;4142694;28;20248;-73
2022/10/24 10:15:54;;;;;;;8.70;2.78;;;20.20;99.90;;;;;;4144002;28;20217;-73
2022/10/24 10:18:00;;;;;;;11.00;2.33;;;20.20;99.90;;;;;;4138137;28;20213;-74
2022/10/24 10:20:02;;;;;;;8.27;2.20;;;20.30;99.90;;;;;;4143981;28;20252;-72
2022/10/24 10:22:07;;;;;;;11.48;2.58;;;20.20;99.90;;;;;;4144536;28;20233;-72
2022/10/24 10:24:25;;;;;;;10.50;2.20;;;20.20;99.90;;;;;;4142963;28;20226;-72
2022/10/24 10:26:29;;;;;;;8.75;2.28;;;20.20;99.90;;;;;;4140640;28;20260;-73
2022/10/24 10:28:35;;;;;;;7.88;2.17;;;20.20;99.90;;;;;;4144892;28;20972;-73
2022/10/24 10:30:47;;;;;;;9.07;2.20;;;20.20;99.90;;;;;;4144806;28;20221;-73
2022/10/24 10:33:11;;;;;;;12.25;2.45;;;20.30;99.90;;;;;;4143836;28;20224;-72
2022/10/24 10:35:19;;;;;;;10.35;2.22;;;20.30;99.90;;;;;;4142703;28;20740;-74
2022/10/24 10:37:28;;;;;;;13.30;2.70;;;20.30;99.90;;;;;;4142216;28;20678;-74
2022/10/24 10:40:02;;;;;;;14.68;2.70;;;20.30;99.90;;;;;;4148069;28;20642;-74
2022/10/24 10:42:11;;;;;;;10.38;2.13;;;20.30;99.90;;;;;;4145185;28;20621;-72
2022/10/24 10:44:43;;;;;;;16.77;2.50;;;20.30;99.90;;;;;;4142657;28;20276;-73
2022/10/24 10:46:56;;;;;;;7.82;1.77;;;20.30;99.90;;;;;;4117197;28;20614;-75